sensor_id;sensor_type;location;lat;lon;timestamp;P1;durP1;ratioP1;P2;durP2;ratioP2
69678;SDS011;56915;52.046;4.854;2023-01-10T00:00:46;10.00;;;1.20;;
69678;SDS011;56915;52.046;4.854;2023-01-10T00:03:13;9.93;;;0.95;;
69678;SDS011;56915;52.046;4.854;2023-01-10T00:05:40;7.07;;;1.10;;
69678;SDS011;56915;52.046;4.854;2023-01-10T00:08:07;9.35;;;1.20;;
69678;SDS011;56915;52.046;4.854;2023-01-10T00:10:36;9.73;;;1.17;;
69678;SDS011;56915;52.046;4.854;2023-01-10T00:13:02;12.17;;;0.90;;
69678;SDS011;56915;52.046;4.854;2023-01-10T00:15:51;4.35;;;0.77;;
69678;SDS011;56915;52.046;4.854;2023-01-10T00:18:19;5.22;;;0.90;;
69678;SDS011;56915;52.046;4.854;2023-01-10T00:20:47;10.77;;;1.13;;
69678;SDS011;56915;52.046;4.854;2023-01-10T00:23:14;11.13;;;1.10;;
69678;SDS011;56915;52.046;4.854;2023-01-10T00:25:42;10.53;;;1.03;;
69678;SDS011;56915;52.046;4.854;2023-01-10T00:28:09;8.55;;;1.20;;
69678;SDS011;56915;52.046;4.854;2023-01-10T00:30:48;11.82;;;1.13;;
69678;SDS011;56915;52.046;4.854;2023-01-10T00:33:27;10.63;;;1.20;;
69678;SDS011;56915;52.046;4.854;2023-01-10T00:35:57;12.68;;;1.30;;
69678;SDS011;56915;52.046;4.854;2023-01-10T00:38:28;7.90;;;0.93;;
69678;SDS011;56915;52.046;4.854;2023-01-10T00:40:56;6.95;;;0.75;;
69678;SDS011;56915;52.046;4.854;2023-01-10T00:43:23;7.07;;;0.70;;
69678;SDS011;56915;52.046;4.854;2023-01-10T00:46:08;5.75;;;0.90;;
69678;SDS011;56915;52.046;4.854;2023-01-10T00:48:36;6.38;;;1.08;;
69678;SDS011;56915;52.046;4.854;2023-01-10T00:51:03;10.73;;;1.00;;
69678;SDS011;56915;52.046;4.854;2023-01-10T00:53:30;6.80;;;1.00;;
69678;SDS011;56915;52.046;4.854;2023-01-10T00:55:58;9.60;;;1.08;;
69678;SDS011;56915;52.046;4.854;2023-01-10T00:58:24;8.60;;;0.80;;
69678;SDS011;56915;52.046;4.854;2023-01-10T01:00:51;8.40;;;0.60;;
69678;SDS011;56915;52.046;4.854;2023-01-10T01:03:19;10.27;;;1.00;;
69678;SDS011;56915;52.046;4.854;2023-01-10T01:05:48;8.52;;;0.90;;
69678;SDS011;56915;52.046;4.854;2023-01-10T01:08:15;7.50;;;1.00;;
69678;SDS011;56915;52.046;4.854;2023-01-10T01:10:43;10.35;;;1.10;;
69678;SDS011;56915;52.046;4.854;2023-01-10T01:13:15;8.30;;;0.98;;
69678;SDS011;56915;52.046;4.854;2023-01-10T01:15:43;11.87;;;1.17;;
69678;SDS011;56915;52.046;4.854;2023-01-10T01:18:11;9.40;;;1.10;;
69678;SDS011;56915;52.046;4.854;2023-01-10T01:20:39;10.93;;;1.17;;
69678;SDS011;56915;52.046;4.854;2023-01-10T01:23:06;9.18;;;1.10;;
69678;SDS011;56915;52.046;4.854;2023-01-10T01:25:34;11.02;;;1.10;;
69678;SDS011;56915;52.046;4.854;2023-01-10T01:28:00;12.77;;;1.33;;
69678;SDS011;56915;52.046;4.854;2023-01-10T01:30:27;3.63;;;0.70;;
69678;SDS011;56915;52.046;4.854;2023-01-10T01:32:54;8.15;;;1.08;;
69678;SDS011;56915;52.046;4.854;2023-01-10T01:35:21;6.82;;;0.88;;
69678;SDS011;56915;52.046;4.854;2023-01-10T01:37:50;6.55;;;0.80;;
69678;SDS011;56915;52.046;4.854;2023-01-10T01:40:20;8.67;;;0.97;;
69678;SDS011;56915;52.046;4.854;2023-01-10T01:42:48;12.23;;;1.27;;
69678;SDS011;56915;52.046;4.854;2023-01-10T01:48:08;13.02;;;1.30;;
69678;SDS011;56915;52.046;4.854;2023-01-10T01:56:20;8.43;;;1.27;;
69678;SDS011;56915;52.046;4.854;2023-01-10T01:59:04;8.68;;;1.00;;
69678;SDS011;56915;52.046;4.854;2023-01-10T02:01:36;9.48;;;1.10;;
69678;SDS011;56915;52.046;4.854;2023-01-10T02:04:11;5.53;;;1.15;;
69678;SDS011;56915;52.046;4.854;2023-01-10T02:06:43;9.17;;;1.47;;
69678;SDS011;56915;52.046;4.854;2023-01-10T02:12:01;5.20;;;0.70;;
69678;SDS011;56915;52.046;4.854;2023-01-10T02:14:28;8.60;;;1.17;;
69678;SDS011;56915;52.046;4.854;2023-01-10T02:16:57;9.82;;;0.93;;
69678;SDS011;56915;52.046;4.854;2023-01-10T02:24:40;9.70;;;0.90;;
69678;SDS011;56915;52.046;4.854;2023-01-10T02:27:24;16.25;;;1.33;;
69678;SDS011;56915;52.046;4.854;2023-01-10T02:33:32;9.97;;;1.10;;
69678;SDS011;56915;52.046;4.854;2023-01-10T02:36:12;11.68;;;1.25;;
69678;SDS011;56915;52.046;4.854;2023-01-10T02:39:23;7.13;;;1.30;;
69678;SDS011;56915;52.046;4.854;2023-01-10T02:41:52;8.25;;;1.27;;
69678;SDS011;56915;52.046;4.854;2023-01-10T02:46:52;7.60;;;1.40;;
69678;SDS011;56915;52.046;4.854;2023-01-10T02:49:21;11.25;;;1.90;;
69678;SDS011;56915;52.046;4.854;2023-01-10T02:51:47;10.60;;;1.45;;
69678;SDS011;56915;52.046;4.854;2023-01-10T02:54:18;5.95;;;1.10;;
69678;SDS011;56915;52.046;4.854;2023-01-10T03:11:08;12.57;;;1.33;;
69678;SDS011;56915;52.046;4.854;2023-01-10T03:13:44;11.47;;;1.13;;
69678;SDS011;56915;52.046;4.854;2023-01-10T03:16:23;9.30;;;1.30;;
69678;SDS011;56915;52.046;4.854;2023-01-10T03:18:58;7.10;;;0.82;;
69678;SDS011;56915;52.046;4.854;2023-01-10T03:21:32;9.15;;;1.27;;
69678;SDS011;56915;52.046;4.854;2023-01-10T03:24:17;9.25;;;1.23;;
69678;SDS011;56915;52.046;4.854;2023-01-10T03:26:53;14.77;;;1.03;;
69678;SDS011;56915;52.046;4.854;2023-01-10T03:29:28;9.27;;;1.27;;
69678;SDS011;56915;52.046;4.854;2023-01-10T03:32:03;11.65;;;1.50;;
69678;SDS011;56915;52.046;4.854;2023-01-10T03:34:32;14.13;;;1.52;;
69678;SDS011;56915;52.046;4.854;2023-01-10T03:37:13;12.80;;;1.70;;
69678;SDS011;56915;52.046;4.854;2023-01-10T03:42:51;11.38;;;1.30;;
69678;SDS011;56915;52.046;4.854;2023-01-10T03:45:50;10.38;;;1.40;;
69678;SDS011;56915;52.046;4.854;2023-01-10T03:48:19;10.52;;;1.05;;
69678;SDS011;56915;52.046;4.854;2023-01-10T03:50:48;14.15;;;1.23;;
69678;SDS011;56915;52.046;4.854;2023-01-10T03:53:16;6.20;;;0.70;;
69678;SDS011;56915;52.046;4.854;2023-01-10T03:55:43;12.98;;;1.50;;
69678;SDS011;56915;52.046;4.854;2023-01-10T03:58:10;7.47;;;1.17;;
69678;SDS011;56915;52.046;4.854;2023-01-10T04:00:37;13.82;;;1.50;;
69678;SDS011;56915;52.046;4.854;2023-01-10T04:03:05;10.68;;;1.30;;
69678;SDS011;56915;52.046;4.854;2023-01-10T04:05:34;11.47;;;1.30;;
69678;SDS011;56915;52.046;4.854;2023-01-10T04:08:01;16.08;;;1.50;;
69678;SDS011;56915;52.046;4.854;2023-01-10T04:10:28;8.55;;;1.23;;
69678;SDS011;56915;52.046;4.854;2023-01-10T04:12:59;9.05;;;1.35;;
69678;SDS011;56915;52.046;4.854;2023-01-10T04:15:28;8.10;;;1.23;;
69678;SDS011;56915;52.046;4.854;2023-01-10T04:17:55;11.37;;;1.50;;
69678;SDS011;56915;52.046;4.854;2023-01-10T04:20:22;12.32;;;1.42;;
69678;SDS011;56915;52.046;4.854;2023-01-10T04:22:52;9.27;;;1.00;;
69678;SDS011;56915;52.046;4.854;2023-01-10T04:25:20;15.70;;;1.17;;
69678;SDS011;56915;52.046;4.854;2023-01-10T04:27:48;15.68;;;1.27;;
69678;SDS011;56915;52.046;4.854;2023-01-10T04:30:16;8.60;;;1.20;;
69678;SDS011;56915;52.046;4.854;2023-01-10T04:32:46;14.50;;;1.83;;
69678;SDS011;56915;52.046;4.854;2023-01-10T04:35:13;13.15;;;1.63;;
69678;SDS011;56915;52.046;4.854;2023-01-10T04:37:40;9.88;;;1.27;;
69678;SDS011;56915;52.046;4.854;2023-01-10T04:40:08;14.63;;;1.60;;
69678;SDS011;56915;52.046;4.854;2023-01-10T04:42:35;19.73;;;1.60;;
69678;SDS011;56915;52.046;4.854;2023-01-10T04:45:02;12.27;;;1.50;;
69678;SDS011;56915;52.046;4.854;2023-01-10T04:47:30;8.57;;;1.40;;
69678;SDS011;56915;52.046;4.854;2023-01-10T04:49:57;14.15;;;1.45;;
69678;SDS011;56915;52.046;4.854;2023-01-10T04:52:23;17.83;;;1.50;;
69678;SDS011;56915;52.046;4.854;2023-01-10T04:54:52;12.93;;;1.73;;
69678;SDS011;56915;52.046;4.854;2023-01-10T04:57:19;14.20;;;1.70;;
69678;SDS011;56915;52.046;4.854;2023-01-10T04:59:46;15.93;;;1.67;;
69678;SDS011;56915;52.046;4.854;2023-01-10T05:02:13;12.68;;;1.67;;
69678;SDS011;56915;52.046;4.854;2023-01-10T05:04:39;13.82;;;1.90;;
69678;SDS011;56915;52.046;4.854;2023-01-10T05:07:06;11.33;;;1.97;;
69678;SDS011;56915;52.046;4.854;2023-01-10T05:09:33;12.38;;;1.45;;
69678;SDS011;56915;52.046;4.854;2023-01-10T05:12:00;17.33;;;1.67;;
69678;SDS011;56915;52.046;4.854;2023-01-10T05:14:27;9.48;;;1.10;;
69678;SDS011;56915;52.046;4.854;2023-01-10T05:16:54;17.73;;;2.22;;
69678;SDS011;56915;52.046;4.854;2023-01-10T05:19:21;21.07;;;2.07;;
69678;SDS011;56915;52.046;4.854;2023-01-10T05:21:48;12.43;;;1.50;;
69678;SDS011;56915;52.046;4.854;2023-01-10T05:24:17;11.93;;;1.75;;
69678;SDS011;56915;52.046;4.854;2023-01-10T05:26:44;19.88;;;1.48;;
69678;SDS011;56915;52.046;4.854;2023-01-10T05:29:11;15.00;;;1.38;;
69678;SDS011;56915;52.046;4.854;2023-01-10T05:31:39;15.40;;;1.40;;
69678;SDS011;56915;52.046;4.854;2023-01-10T05:34:08;12.48;;;1.50;;
69678;SDS011;56915;52.046;4.854;2023-01-10T05:36:38;12.98;;;1.65;;
69678;SDS011;56915;52.046;4.854;2023-01-10T05:39:05;9.57;;;1.38;;
69678;SDS011;56915;52.046;4.854;2023-01-10T05:41:31;9.35;;;1.13;;
69678;SDS011;56915;52.046;4.854;2023-01-10T05:43:58;17.73;;;1.60;;
69678;SDS011;56915;52.046;4.854;2023-01-10T05:46:25;17.38;;;1.65;;
69678;SDS011;56915;52.046;4.854;2023-01-10T05:48:52;13.68;;;1.52;;
69678;SDS011;56915;52.046;4.854;2023-01-10T05:51:19;14.50;;;1.85;;
69678;SDS011;56915;52.046;4.854;2023-01-10T05:53:46;12.50;;;1.45;;
69678;SDS011;56915;52.046;4.854;2023-01-10T05:56:14;16.40;;;1.80;;
69678;SDS011;56915;52.046;4.854;2023-01-10T05:58:41;17.55;;;1.40;;
69678;SDS011;56915;52.046;4.854;2023-01-10T06:01:12;13.90;;;1.65;;
69678;SDS011;56915;52.046;4.854;2023-01-10T06:03:39;14.05;;;1.70;;
69678;SDS011;56915;52.046;4.854;2023-01-10T06:06:05;12.88;;;1.63;;
69678;SDS011;56915;52.046;4.854;2023-01-10T06:08:32;16.03;;;2.40;;
69678;SDS011;56915;52.046;4.854;2023-01-10T06:11:05;20.20;;;2.22;;
69678;SDS011;56915;52.046;4.854;2023-01-10T06:13:32;11.93;;;1.55;;
69678;SDS011;56915;52.046;4.854;2023-01-10T06:15:59;16.40;;;1.83;;
69678;SDS011;56915;52.046;4.854;2023-01-10T06:18:26;15.73;;;1.50;;
69678;SDS011;56915;52.046;4.854;2023-01-10T06:20:53;14.00;;;1.73;;
69678;SDS011;56915;52.046;4.854;2023-01-10T06:23:20;13.23;;;1.58;;
69678;SDS011;56915;52.046;4.854;2023-01-10T06:25:47;19.85;;;1.80;;
69678;SDS011;56915;52.046;4.854;2023-01-10T06:28:14;15.18;;;1.50;;
69678;SDS011;56915;52.046;4.854;2023-01-10T06:30:41;16.02;;;2.13;;
69678;SDS011;56915;52.046;4.854;2023-01-10T06:33:09;15.27;;;1.50;;
69678;SDS011;56915;52.046;4.854;2023-01-10T06:35:37;20.23;;;2.00;;
69678;SDS011;56915;52.046;4.854;2023-01-10T06:38:04;16.90;;;1.98;;
69678;SDS011;56915;52.046;4.854;2023-01-10T06:40:31;18.35;;;2.10;;
69678;SDS011;56915;52.046;4.854;2023-01-10T06:42:58;18.38;;;2.10;;
69678;SDS011;56915;52.046;4.854;2023-01-10T06:45:25;18.40;;;2.00;;
69678;SDS011;56915;52.046;4.854;2023-01-10T06:47:52;22.00;;;2.10;;
69678;SDS011;56915;52.046;4.854;2023-01-10T06:50:19;13.02;;;2.15;;
69678;SDS011;56915;52.046;4.854;2023-01-10T06:52:53;15.98;;;2.00;;
69678;SDS011;56915;52.046;4.854;2023-01-10T06:55:24;23.08;;;2.95;;
69678;SDS011;56915;52.046;4.854;2023-01-10T06:57:59;21.77;;;2.00;;
69678;SDS011;56915;52.046;4.854;2023-01-10T07:00:27;20.15;;;1.73;;
69678;SDS011;56915;52.046;4.854;2023-01-10T07:02:58;19.77;;;1.90;;
69678;SDS011;56915;52.046;4.854;2023-01-10T07:05:26;17.65;;;2.90;;
69678;SDS011;56915;52.046;4.854;2023-01-10T07:07:55;27.13;;;1.90;;
69678;SDS011;56915;52.046;4.854;2023-01-10T07:10:23;17.13;;;1.90;;
69678;SDS011;56915;52.046;4.854;2023-01-10T07:12:49;16.42;;;2.10;;
69678;SDS011;56915;52.046;4.854;2023-01-10T07:15:17;19.05;;;2.00;;
69678;SDS011;56915;52.046;4.854;2023-01-10T07:17:44;24.30;;;2.15;;
69678;SDS011;56915;52.046;4.854;2023-01-10T07:20:11;20.42;;;2.15;;
69678;SDS011;56915;52.046;4.854;2023-01-10T07:22:38;21.23;;;2.07;;
69678;SDS011;56915;52.046;4.854;2023-01-10T07:25:05;18.73;;;2.50;;
69678;SDS011;56915;52.046;4.854;2023-01-10T07:27:32;17.88;;;2.20;;
69678;SDS011;56915;52.046;4.854;2023-01-10T07:29:59;18.45;;;2.72;;
69678;SDS011;56915;52.046;4.854;2023-01-10T07:32:26;18.20;;;2.30;;
69678;SDS011;56915;52.046;4.854;2023-01-10T07:34:53;19.90;;;2.10;;
69678;SDS011;56915;52.046;4.854;2023-01-10T07:37:20;23.67;;;2.33;;
69678;SDS011;56915;52.046;4.854;2023-01-10T07:39:46;22.77;;;2.70;;
69678;SDS011;56915;52.046;4.854;2023-01-10T07:42:14;18.42;;;2.90;;
69678;SDS011;56915;52.046;4.854;2023-01-10T07:44:40;25.50;;;3.10;;
69678;SDS011;56915;52.046;4.854;2023-01-10T07:47:07;16.20;;;2.97;;
69678;SDS011;56915;52.046;4.854;2023-01-10T07:49:34;22.42;;;2.40;;
69678;SDS011;56915;52.046;4.854;2023-01-10T07:52:01;22.35;;;2.70;;
69678;SDS011;56915;52.046;4.854;2023-01-10T07:54:28;18.67;;;3.00;;
69678;SDS011;56915;52.046;4.854;2023-01-10T07:56:55;20.98;;;3.35;;
69678;SDS011;56915;52.046;4.854;2023-01-10T07:59:22;17.43;;;3.20;;
69678;SDS011;56915;52.046;4.854;2023-01-10T08:01:49;18.85;;;3.60;;
69678;SDS011;56915;52.046;4.854;2023-01-10T08:04:16;24.98;;;4.07;;
69678;SDS011;56915;52.046;4.854;2023-01-10T08:06:42;25.08;;;3.92;;
69678;SDS011;56915;52.046;4.854;2023-01-10T08:09:09;24.42;;;3.95;;
69678;SDS011;56915;52.046;4.854;2023-01-10T08:11:36;23.80;;;4.30;;
69678;SDS011;56915;52.046;4.854;2023-01-10T08:14:06;23.52;;;4.43;;
69678;SDS011;56915;52.046;4.854;2023-01-10T08:16:33;19.27;;;4.10;;
69678;SDS011;56915;52.046;4.854;2023-01-10T08:19:00;24.00;;;4.93;;
69678;SDS011;56915;52.046;4.854;2023-01-10T08:21:27;28.00;;;4.00;;
69678;SDS011;56915;52.046;4.854;2023-01-10T08:23:53;29.27;;;4.77;;
69678;SDS011;56915;52.046;4.854;2023-01-10T08:26:20;21.58;;;4.38;;
69678;SDS011;56915;52.046;4.854;2023-01-10T08:28:47;20.67;;;3.88;;
69678;SDS011;56915;52.046;4.854;2023-01-10T08:31:14;23.73;;;4.18;;
69678;SDS011;56915;52.046;4.854;2023-01-10T08:33:41;22.10;;;3.67;;
69678;SDS011;56915;52.046;4.854;2023-01-10T08:36:14;17.10;;;3.43;;
69678;SDS011;56915;52.046;4.854;2023-01-10T08:38:42;17.60;;;3.50;;
69678;SDS011;56915;52.046;4.854;2023-01-10T08:41:09;20.58;;;3.50;;
69678;SDS011;56915;52.046;4.854;2023-01-10T08:43:36;23.13;;;4.00;;
69678;SDS011;56915;52.046;4.854;2023-01-10T08:46:03;22.65;;;3.40;;
69678;SDS011;56915;52.046;4.854;2023-01-10T08:48:30;29.37;;;3.80;;
69678;SDS011;56915;52.046;4.854;2023-01-10T08:50:57;17.75;;;3.55;;
69678;SDS011;56915;52.046;4.854;2023-01-10T08:53:29;14.98;;;3.53;;
69678;SDS011;56915;52.046;4.854;2023-01-10T08:55:57;19.75;;;3.88;;
69678;SDS011;56915;52.046;4.854;2023-01-10T08:58:23;18.67;;;3.85;;
69678;SDS011;56915;52.046;4.854;2023-01-10T09:00:50;20.10;;;3.80;;
69678;SDS011;56915;52.046;4.854;2023-01-10T09:03:17;22.30;;;3.75;;
69678;SDS011;56915;52.046;4.854;2023-01-10T09:05:44;20.35;;;3.45;;
69678;SDS011;56915;52.046;4.854;2023-01-10T09:08:11;24.52;;;3.35;;
69678;SDS011;56915;52.046;4.854;2023-01-10T09:10:38;26.73;;;4.03;;
69678;SDS011;56915;52.046;4.854;2023-01-10T09:13:05;24.43;;;3.70;;
69678;SDS011;56915;52.046;4.854;2023-01-10T09:15:32;13.98;;;3.33;;
69678;SDS011;56915;52.046;4.854;2023-01-10T09:18:04;20.48;;;3.28;;
69678;SDS011;56915;52.046;4.854;2023-01-10T09:20:36;16.20;;;3.10;;
69678;SDS011;56915;52.046;4.854;2023-01-10T09:23:06;18.00;;;3.50;;
69678;SDS011;56915;52.046;4.854;2023-01-10T09:25:34;23.67;;;3.80;;
69678;SDS011;56915;52.046;4.854;2023-01-10T09:28:01;21.05;;;4.00;;
69678;SDS011;56915;52.046;4.854;2023-01-10T09:30:29;15.00;;;2.90;;
69678;SDS011;56915;52.046;4.854;2023-01-10T09:32:57;23.13;;;3.75;;
69678;SDS011;56915;52.046;4.854;2023-01-10T09:35:25;20.00;;;3.58;;
69678;SDS011;56915;52.046;4.854;2023-01-10T09:37:54;16.83;;;2.87;;
69678;SDS011;56915;52.046;4.854;2023-01-10T09:46:34;14.25;;;2.53;;
69678;SDS011;56915;52.046;4.854;2023-01-10T09:49:57;13.82;;;2.95;;
69678;SDS011;56915;52.046;4.854;2023-01-10T09:52:02;15.77;;;2.53;;
69678;SDS011;56915;52.046;4.854;2023-01-10T09:54:40;16.92;;;2.67;;
69678;SDS011;56915;52.046;4.854;2023-01-10T09:57:17;17.50;;;3.08;;
69678;SDS011;56915;52.046;4.854;2023-01-10T09:59:46;15.50;;;3.00;;
69678;SDS011;56915;52.046;4.854;2023-01-10T10:04:43;17.20;;;2.40;;
69678;SDS011;56915;52.046;4.854;2023-01-10T10:07:32;17.38;;;2.75;;
69678;SDS011;56915;52.046;4.854;2023-01-10T10:10:00;16.48;;;2.92;;
69678;SDS011;56915;52.046;4.854;2023-01-10T10:15:12;12.13;;;2.50;;
69678;SDS011;56915;52.046;4.854;2023-01-10T10:21:00;17.17;;;2.40;;
69678;SDS011;56915;52.046;4.854;2023-01-10T10:34:54;13.38;;;2.33;;
69678;SDS011;56915;52.046;4.854;2023-01-10T10:37:37;16.80;;;2.40;;
69678;SDS011;56915;52.046;4.854;2023-01-10T10:42:46;12.00;;;2.25;;
69678;SDS011;56915;52.046;4.854;2023-01-10T10:48:14;16.13;;;2.05;;
69678;SDS011;56915;52.046;4.854;2023-01-10T10:51:15;15.23;;;2.33;;
69678;SDS011;56915;52.046;4.854;2023-01-10T10:53:54;16.80;;;2.00;;
69678;SDS011;56915;52.046;4.854;2023-01-10T10:56:23;13.38;;;1.85;;
69678;SDS011;56915;52.046;4.854;2023-01-10T10:58:52;19.13;;;2.30;;
69678;SDS011;56915;52.046;4.854;2023-01-10T11:01:21;15.68;;;2.38;;
69678;SDS011;56915;52.046;4.854;2023-01-10T11:03:53;15.75;;;2.33;;
69678;SDS011;56915;52.046;4.854;2023-01-10T11:06:24;12.38;;;1.95;;
69678;SDS011;56915;52.046;4.854;2023-01-10T11:08:54;16.40;;;2.03;;
69678;SDS011;56915;52.046;4.854;2023-01-10T11:11:28;20.10;;;2.30;;
69678;SDS011;56915;52.046;4.854;2023-01-10T11:14:00;17.20;;;2.13;;
69678;SDS011;56915;52.046;4.854;2023-01-10T11:19:21;12.18;;;1.90;;
69678;SDS011;56915;52.046;4.854;2023-01-10T11:21:56;16.23;;;2.40;;
69678;SDS011;56915;52.046;4.854;2023-01-10T11:24:27;17.57;;;2.47;;
69678;SDS011;56915;52.046;4.854;2023-01-10T11:27:04;14.50;;;1.90;;
69678;SDS011;56915;52.046;4.854;2023-01-10T11:29:48;11.95;;;1.83;;
69678;SDS011;56915;52.046;4.854;2023-01-10T11:32:18;15.68;;;1.95;;
69678;SDS011;56915;52.046;4.854;2023-01-10T11:34:49;14.40;;;2.00;;
69678;SDS011;56915;52.046;4.854;2023-01-10T11:37:28;18.60;;;2.13;;
69678;SDS011;56915;52.046;4.854;2023-01-10T11:42:42;16.50;;;1.90;;
69678;SDS011;56915;52.046;4.854;2023-01-10T11:48:30;13.60;;;2.10;;
69678;SDS011;56915;52.046;4.854;2023-01-10T11:51:13;17.73;;;2.07;;
69678;SDS011;56915;52.046;4.854;2023-01-10T11:54:20;16.02;;;2.75;;
69678;SDS011;56915;52.046;4.854;2023-01-10T11:56:56;13.95;;;2.10;;
69678;SDS011;56915;52.046;4.854;2023-01-10T11:59:29;13.40;;;1.90;;
69678;SDS011;56915;52.046;4.854;2023-01-10T12:02:03;15.05;;;2.00;;
69678;SDS011;56915;52.046;4.854;2023-01-10T12:04:41;11.97;;;1.80;;
69678;SDS011;56915;52.046;4.854;2023-01-10T12:07:12;26.35;;;2.15;;
69678;SDS011;56915;52.046;4.854;2023-01-10T12:09:42;13.73;;;2.00;;
69678;SDS011;56915;52.046;4.854;2023-01-10T12:14:44;11.30;;;1.83;;
69678;SDS011;56915;52.046;4.854;2023-01-10T12:17:30;10.03;;;1.80;;
69678;SDS011;56915;52.046;4.854;2023-01-10T12:19:59;12.82;;;2.05;;
69678;SDS011;56915;52.046;4.854;2023-01-10T12:22:30;14.93;;;1.90;;
69678;SDS011;56915;52.046;4.854;2023-01-10T12:25:01;17.60;;;2.30;;
69678;SDS011;56915;52.046;4.854;2023-01-10T12:27:34;12.02;;;1.70;;
69678;SDS011;56915;52.046;4.854;2023-01-10T12:32:41;15.25;;;1.80;;
69678;SDS011;56915;52.046;4.854;2023-01-10T12:35:38;18.05;;;2.25;;
69678;SDS011;56915;52.046;4.854;2023-01-10T12:41:27;15.77;;;1.73;;
69678;SDS011;56915;52.046;4.854;2023-01-10T12:44:15;12.33;;;2.10;;
69678;SDS011;56915;52.046;4.854;2023-01-10T12:46:46;11.32;;;2.03;;
69678;SDS011;56915;52.046;4.854;2023-01-10T12:49:42;16.60;;;2.20;;
69678;SDS011;56915;52.046;4.854;2023-01-10T12:52:17;13.45;;;2.13;;
69678;SDS011;56915;52.046;4.854;2023-01-10T12:55:11;9.70;;;1.92;;
69678;SDS011;56915;52.046;4.854;2023-01-10T12:57:43;13.53;;;1.70;;
69678;SDS011;56915;52.046;4.854;2023-01-10T13:03:20;15.98;;;2.15;;
69678;SDS011;56915;52.046;4.854;2023-01-10T13:05:50;16.48;;;2.28;;
69678;SDS011;56915;52.046;4.854;2023-01-10T13:08:20;13.60;;;2.17;;
69678;SDS011;56915;52.046;4.854;2023-01-10T13:10:51;16.87;;;2.43;;
69678;SDS011;56915;52.046;4.854;2023-01-10T13:13:21;7.78;;;1.65;;
69678;SDS011;56915;52.046;4.854;2023-01-10T13:16:11;13.48;;;1.60;;
69678;SDS011;56915;52.046;4.854;2023-01-10T13:21:37;13.38;;;1.70;;
69678;SDS011;56915;52.046;4.854;2023-01-10T13:27:00;14.55;;;2.05;;
69678;SDS011;56915;52.046;4.854;2023-01-10T13:29:29;10.90;;;1.83;;
69678;SDS011;56915;52.046;4.854;2023-01-10T13:31:58;18.65;;;1.90;;
69678;SDS011;56915;52.046;4.854;2023-01-10T13:34:33;15.80;;;1.85;;
69678;SDS011;56915;52.046;4.854;2023-01-10T13:37:09;8.50;;;1.53;;
69678;SDS011;56915;52.046;4.854;2023-01-10T13:39:54;14.15;;;2.00;;
69678;SDS011;56915;52.046;4.854;2023-01-10T13:42:28;14.25;;;1.92;;
69678;SDS011;56915;52.046;4.854;2023-01-10T14:00:45;18.77;;;2.33;;
69678;SDS011;56915;52.046;4.854;2023-01-10T14:03:44;10.50;;;1.50;;
69678;SDS011;56915;52.046;4.854;2023-01-10T14:08:47;15.40;;;1.95;;
69678;SDS011;56915;52.046;4.854;2023-01-10T14:11:24;12.63;;;2.28;;
69678;SDS011;56915;52.046;4.854;2023-01-10T14:13:54;13.45;;;2.20;;
69678;SDS011;56915;52.046;4.854;2023-01-10T14:16:27;14.07;;;2.10;;
69678;SDS011;56915;52.046;4.854;2023-01-10T14:18:54;13.88;;;1.75;;
69678;SDS011;56915;52.046;4.854;2023-01-10T14:21:24;16.55;;;2.00;;
69678;SDS011;56915;52.046;4.854;2023-01-10T14:23:55;13.07;;;2.00;;
69678;SDS011;56915;52.046;4.854;2023-01-10T14:26:28;8.73;;;1.52;;
69678;SDS011;56915;52.046;4.854;2023-01-10T14:37:59;11.98;;;2.15;;
69678;SDS011;56915;52.046;4.854;2023-01-10T14:40:38;9.38;;;1.83;;
69678;SDS011;56915;52.046;4.854;2023-01-10T14:43:11;20.33;;;2.87;;
69678;SDS011;56915;52.046;4.854;2023-01-10T14:45:48;12.13;;;1.83;;
69678;SDS011;56915;52.046;4.854;2023-01-10T14:48:25;5.85;;;1.40;;
69678;SDS011;56915;52.046;4.854;2023-01-10T14:54:09;13.50;;;1.92;;
69678;SDS011;56915;52.046;4.854;2023-01-10T15:00:54;18.95;;;2.72;;
69678;SDS011;56915;52.046;4.854;2023-01-10T15:04:24;14.48;;;2.03;;
69678;SDS011;56915;52.046;4.854;2023-01-10T15:07:55;17.10;;;2.20;;
69678;SDS011;56915;52.046;4.854;2023-01-10T15:11:23;12.40;;;2.38;;
69678;SDS011;56915;52.046;4.854;2023-01-10T15:14:38;14.40;;;2.60;;
69678;SDS011;56915;52.046;4.854;2023-01-10T15:17:25;15.60;;;2.63;;
69678;SDS011;56915;52.046;4.854;2023-01-10T15:20:23;12.45;;;2.38;;
69678;SDS011;56915;52.046;4.854;2023-01-10T15:27:10;18.17;;;3.00;;
69678;SDS011;56915;52.046;4.854;2023-01-10T15:30:29;8.53;;;2.27;;
69678;SDS011;56915;52.046;4.854;2023-01-10T17:42:16;10.95;;;4.63;;
69678;SDS011;56915;52.046;4.854;2023-01-10T18:00:24;7.05;;;4.18;;
69678;SDS011;56915;52.046;4.854;2023-01-10T18:07:11;10.33;;;4.97;;
69678;SDS011;56915;52.046;4.854;2023-01-10T18:17:55;9.02;;;4.80;;
69678;SDS011;56915;52.046;4.854;2023-01-10T18:54:15;10.93;;;5.40;;
69678;SDS011;56915;52.046;4.854;2023-01-10T18:57:46;12.23;;;5.63;;
69678;SDS011;56915;52.046;4.854;2023-01-10T19:04:14;11.23;;;5.97;;
69678;SDS011;56915;52.046;4.854;2023-01-10T19:14:35;11.30;;;5.63;;
69678;SDS011;56915;52.046;4.854;2023-01-10T19:17:39;10.73;;;6.30;;
69678;SDS011;56915;52.046;4.854;2023-01-10T19:20:42;11.68;;;6.65;;
69678;SDS011;56915;52.046;4.854;2023-01-10T19:23:30;11.05;;;6.22;;
69678;SDS011;56915;52.046;4.854;2023-01-10T19:26:04;12.87;;;6.53;;
69678;SDS011;56915;52.046;4.854;2023-01-10T19:28:36;12.88;;;6.50;;
69678;SDS011;56915;52.046;4.854;2023-01-10T19:31:15;10.88;;;6.07;;
69678;SDS011;56915;52.046;4.854;2023-01-10T19:33:47;8.55;;;5.70;;
69678;SDS011;56915;52.046;4.854;2023-01-10T19:36:16;11.82;;;6.40;;
69678;SDS011;56915;52.046;4.854;2023-01-10T19:39:01;10.03;;;6.00;;
69678;SDS011;56915;52.046;4.854;2023-01-10T19:42:08;12.43;;;6.43;;
69678;SDS011;56915;52.046;4.854;2023-01-10T19:44:47;10.68;;;6.15;;
69678;SDS011;56915;52.046;4.854;2023-01-10T19:47:18;13.80;;;6.07;;
69678;SDS011;56915;52.046;4.854;2023-01-10T19:49:54;11.95;;;6.07;;
69678;SDS011;56915;52.046;4.854;2023-01-10T19:52:21;14.87;;;6.03;;
69678;SDS011;56915;52.046;4.854;2023-01-10T19:54:47;12.18;;;6.10;;
69678;SDS011;56915;52.046;4.854;2023-01-10T19:57:26;10.43;;;6.55;;
69678;SDS011;56915;52.046;4.854;2023-01-10T20:03:59;10.88;;;6.95;;
69678;SDS011;56915;52.046;4.854;2023-01-10T20:06:37;12.13;;;7.10;;
69678;SDS011;56915;52.046;4.854;2023-01-10T20:12:03;12.63;;;6.40;;
69678;SDS011;56915;52.046;4.854;2023-01-10T20:14:53;15.15;;;6.88;;
69678;SDS011;56915;52.046;4.854;2023-01-10T20:17:38;12.88;;;7.45;;
69678;SDS011;56915;52.046;4.854;2023-01-10T20:20:13;10.50;;;6.93;;
69678;SDS011;56915;52.046;4.854;2023-01-10T20:26:35;13.73;;;7.03;;
69678;SDS011;56915;52.046;4.854;2023-01-10T20:29:59;11.88;;;6.55;;
69678;SDS011;56915;52.046;4.854;2023-01-10T20:43:19;12.55;;;6.82;;
69678;SDS011;56915;52.046;4.854;2023-01-10T20:46:31;14.45;;;6.70;;
69678;SDS011;56915;52.046;4.854;2023-01-10T20:56:57;12.80;;;6.55;;
69678;SDS011;56915;52.046;4.854;2023-01-10T20:59:24;12.05;;;7.07;;
69678;SDS011;56915;52.046;4.854;2023-01-10T21:01:53;14.43;;;7.57;;
69678;SDS011;56915;52.046;4.854;2023-01-10T21:04:20;14.70;;;7.35;;
69678;SDS011;56915;52.046;4.854;2023-01-10T21:06:47;12.73;;;7.60;;
69678;SDS011;56915;52.046;4.854;2023-01-10T21:09:14;12.00;;;7.30;;
69678;SDS011;56915;52.046;4.854;2023-01-10T21:11:41;15.20;;;7.57;;
69678;SDS011;56915;52.046;4.854;2023-01-10T21:14:27;13.48;;;7.13;;
69678;SDS011;56915;52.046;4.854;2023-01-10T21:16:53;12.95;;;6.53;;